Terminal Aerodrome Forecast
Issued by NWS

Home | Current Version | Previous Version | Text Only | Print | Product List | Glossary On
Versions: 1 2 3 4 5 6 7 8 9 10 11 12 13 14 15 16 17 18 19 20
000
FTUS41 KOKX 240528
TAFSWF
TAF
KSWF 240528Z 2406/2512 VRB03KT P6SM SKC
     FM241300 25008KT P6SM SKC
     FM241500 27011G17KT P6SM FEW250
     FM242200 23009KT P6SM FEW060 SCT250
     FM250200 VRB03KT P6SM FEW060 SCT250
     FM250600 VRB03KT P6SM BKN200
      AMD NOT SKED=

USA.gov is the U.S. government's official web portal to all federal, state and local government web resources and services.